Terminal Aerodrome Forecast
Issued by NWS Quad Cities IA IL

Home | Current Version | Previous Version | Text Only | Print | Product List | Glossary On
Versions: 1 2 3 4 5 6 7 8 9 10 11 12 13 14 15 16 17 18 19 20 21 22 23 24 25 26 27 28 29 30
000
FTUS43 KDVN 282240 AAB
TAFMLI
TAF AMD
KMLI 282240Z 2823/2918 16008KT P6SM SCT050 BKN120
      TEMPO 2823/2901 4SM SHRA BR BKN025
     FM290100 12007KT P6SM VCTS BKN035CB
     FM290400 34003KT 4SM BR SCT009 BKN035
      TEMPO 2908/2912 3SM BR BKN009
     FM291300 34006KT 6SM BR BKN020=

USA.gov is the U.S. government's official web portal to all federal, state and local government web resources and services.